sensor_id;sensor_type;location;lat;lon;timestamp;P1;durP1;ratioP1;P2;durP2;ratioP2
43150;SDS011;28755;51.478;5.702;2023-07-30T00:01:38;8.32;;;3.10;;
43150;SDS011;28755;51.478;5.702;2023-07-30T00:04:04;10.23;;;2.65;;
43150;SDS011;28755;51.478;5.702;2023-07-30T00:06:29;9.30;;;2.60;;
43150;SDS011;28755;51.478;5.702;2023-07-30T00:08:55;11.00;;;2.72;;
43150;SDS011;28755;51.478;5.702;2023-07-30T00:11:20;6.10;;;2.50;;
43150;SDS011;28755;51.478;5.702;2023-07-30T00:13:46;13.57;;;3.35;;
43150;SDS011;28755;51.478;5.702;2023-07-30T00:16:11;7.30;;;2.65;;
43150;SDS011;28755;51.478;5.702;2023-07-30T00:18:37;15.77;;;3.15;;
43150;SDS011;28755;51.478;5.702;2023-07-30T00:21:02;9.93;;;2.83;;
43150;SDS011;28755;51.478;5.702;2023-07-30T00:23:28;10.35;;;2.78;;
43150;SDS011;28755;51.478;5.702;2023-07-30T00:25:53;9.60;;;2.55;;
43150;SDS011;28755;51.478;5.702;2023-07-30T00:28:19;7.65;;;2.47;;
43150;SDS011;28755;51.478;5.702;2023-07-30T00:30:45;8.25;;;3.05;;
43150;SDS011;28755;51.478;5.702;2023-07-30T00:33:11;11.63;;;3.15;;
43150;SDS011;28755;51.478;5.702;2023-07-30T00:35:37;8.85;;;2.80;;
43150;SDS011;28755;51.478;5.702;2023-07-30T00:38:02;6.68;;;2.90;;
43150;SDS011;28755;51.478;5.702;2023-07-30T00:40:28;10.75;;;3.00;;
43150;SDS011;28755;51.478;5.702;2023-07-30T00:42:53;13.40;;;3.38;;
43150;SDS011;28755;51.478;5.702;2023-07-30T00:45:19;11.73;;;3.22;;
43150;SDS011;28755;51.478;5.702;2023-07-30T00:47:44;10.30;;;3.55;;
43150;SDS011;28755;51.478;5.702;2023-07-30T00:50:10;12.73;;;3.42;;
43150;SDS011;28755;51.478;5.702;2023-07-30T00:52:37;11.35;;;3.15;;
43150;SDS011;28755;51.478;5.702;2023-07-30T00:55:04;12.00;;;3.47;;
43150;SDS011;28755;51.478;5.702;2023-07-30T00:57:32;15.73;;;3.35;;
43150;SDS011;28755;51.478;5.702;2023-07-30T00:59:59;11.50;;;3.40;;
43150;SDS011;28755;51.478;5.702;2023-07-30T01:02:28;10.60;;;3.75;;
43150;SDS011;28755;51.478;5.702;2023-07-30T01:04:54;8.38;;;2.90;;
43150;SDS011;28755;51.478;5.702;2023-07-30T01:07:19;9.05;;;3.10;;
43150;SDS011;28755;51.478;5.702;2023-07-30T01:09:45;8.95;;;3.00;;
43150;SDS011;28755;51.478;5.702;2023-07-30T01:12:11;9.93;;;3.38;;
43150;SDS011;28755;51.478;5.702;2023-07-30T01:14:36;7.50;;;2.90;;
43150;SDS011;28755;51.478;5.702;2023-07-30T01:17:03;9.32;;;3.42;;
43150;SDS011;28755;51.478;5.702;2023-07-30T01:19:29;11.02;;;3.50;;
43150;SDS011;28755;51.478;5.702;2023-07-30T01:21:55;9.52;;;2.97;;
43150;SDS011;28755;51.478;5.702;2023-07-30T01:24:21;7.15;;;3.10;;
43150;SDS011;28755;51.478;5.702;2023-07-30T01:26:49;8.00;;;3.03;;
43150;SDS011;28755;51.478;5.702;2023-07-30T01:29:22;10.98;;;3.92;;
43150;SDS011;28755;51.478;5.702;2023-07-30T01:31:53;9.88;;;3.88;;
43150;SDS011;28755;51.478;5.702;2023-07-30T01:34:21;12.98;;;4.03;;
43150;SDS011;28755;51.478;5.702;2023-07-30T01:36:53;9.80;;;2.88;;
43150;SDS011;28755;51.478;5.702;2023-07-30T01:39:19;10.98;;;3.08;;
43150;SDS011;28755;51.478;5.702;2023-07-30T01:41:45;11.43;;;3.47;;
43150;SDS011;28755;51.478;5.702;2023-07-30T01:44:11;10.68;;;3.20;;
43150;SDS011;28755;51.478;5.702;2023-07-30T01:46:37;14.85;;;3.53;;
43150;SDS011;28755;51.478;5.702;2023-07-30T01:49:02;11.75;;;3.42;;
43150;SDS011;28755;51.478;5.702;2023-07-30T01:51:28;12.73;;;3.38;;
43150;SDS011;28755;51.478;5.702;2023-07-30T01:53:54;9.23;;;3.38;;
43150;SDS011;28755;51.478;5.702;2023-07-30T01:56:19;12.18;;;3.67;;
43150;SDS011;28755;51.478;5.702;2023-07-30T01:58:45;11.68;;;3.63;;
43150;SDS011;28755;51.478;5.702;2023-07-30T02:01:10;8.15;;;3.28;;
43150;SDS011;28755;51.478;5.702;2023-07-30T02:03:36;11.60;;;3.70;;
43150;SDS011;28755;51.478;5.702;2023-07-30T02:06:01;9.60;;;3.58;;
43150;SDS011;28755;51.478;5.702;2023-07-30T02:08:27;9.77;;;3.10;;
43150;SDS011;28755;51.478;5.702;2023-07-30T02:10:56;13.50;;;3.33;;
43150;SDS011;28755;51.478;5.702;2023-07-30T02:13:23;13.63;;;3.03;;
43150;SDS011;28755;51.478;5.702;2023-07-30T02:15:49;12.93;;;3.72;;
43150;SDS011;28755;51.478;5.702;2023-07-30T02:18:14;16.25;;;3.47;;
43150;SDS011;28755;51.478;5.702;2023-07-30T02:20:40;17.30;;;3.58;;
43150;SDS011;28755;51.478;5.702;2023-07-30T02:23:06;12.75;;;3.58;;
43150;SDS011;28755;51.478;5.702;2023-07-30T02:25:32;12.38;;;3.13;;
43150;SDS011;28755;51.478;5.702;2023-07-30T02:27:59;10.43;;;3.08;;
43150;SDS011;28755;51.478;5.702;2023-07-30T02:30:25;10.98;;;3.20;;
43150;SDS011;28755;51.478;5.702;2023-07-30T02:32:51;19.10;;;3.90;;
43150;SDS011;28755;51.478;5.702;2023-07-30T02:35:17;15.57;;;3.45;;
43150;SDS011;28755;51.478;5.702;2023-07-30T02:37:42;14.38;;;3.50;;
43150;SDS011;28755;51.478;5.702;2023-07-30T02:40:08;14.98;;;3.90;;
43150;SDS011;28755;51.478;5.702;2023-07-30T02:42:34;16.73;;;3.38;;
43150;SDS011;28755;51.478;5.702;2023-07-30T02:45:00;14.93;;;3.45;;
43150;SDS011;28755;51.478;5.702;2023-07-30T02:47:25;12.35;;;3.70;;
43150;SDS011;28755;51.478;5.702;2023-07-30T02:49:51;10.77;;;3.08;;
43150;SDS011;28755;51.478;5.702;2023-07-30T02:52:16;14.27;;;3.40;;
43150;SDS011;28755;51.478;5.702;2023-07-30T02:54:42;13.82;;;3.60;;
43150;SDS011;28755;51.478;5.702;2023-07-30T02:57:07;16.08;;;3.05;;
43150;SDS011;28755;51.478;5.702;2023-07-30T02:59:33;14.13;;;3.15;;
43150;SDS011;28755;51.478;5.702;2023-07-30T03:02:01;15.70;;;3.75;;
43150;SDS011;28755;51.478;5.702;2023-07-30T03:04:27;9.48;;;3.38;;
43150;SDS011;28755;51.478;5.702;2023-07-30T03:06:52;14.93;;;3.42;;
43150;SDS011;28755;51.478;5.702;2023-07-30T03:09:18;15.90;;;3.85;;
43150;SDS011;28755;51.478;5.702;2023-07-30T03:11:43;17.63;;;4.95;;
43150;SDS011;28755;51.478;5.702;2023-07-30T03:14:09;12.27;;;4.05;;
43150;SDS011;28755;51.478;5.702;2023-07-30T03:16:34;13.50;;;3.40;;
43150;SDS011;28755;51.478;5.702;2023-07-30T03:19:00;18.65;;;4.38;;
43150;SDS011;28755;51.478;5.702;2023-07-30T03:21:26;14.45;;;4.03;;
43150;SDS011;28755;51.478;5.702;2023-07-30T03:23:51;13.15;;;3.80;;
43150;SDS011;28755;51.478;5.702;2023-07-30T03:26:17;15.02;;;3.85;;
43150;SDS011;28755;51.478;5.702;2023-07-30T03:28:42;18.42;;;3.80;;
43150;SDS011;28755;51.478;5.702;2023-07-30T03:31:08;20.23;;;4.13;;
43150;SDS011;28755;51.478;5.702;2023-07-30T03:33:33;18.48;;;4.05;;
43150;SDS011;28755;51.478;5.702;2023-07-30T03:35:59;16.75;;;3.50;;
43150;SDS011;28755;51.478;5.702;2023-07-30T03:38:25;13.40;;;3.70;;
43150;SDS011;28755;51.478;5.702;2023-07-30T03:40:51;14.52;;;3.67;;
43150;SDS011;28755;51.478;5.702;2023-07-30T03:43:16;18.17;;;4.40;;
43150;SDS011;28755;51.478;5.702;2023-07-30T03:45:42;14.27;;;3.83;;
43150;SDS011;28755;51.478;5.702;2023-07-30T03:48:07;15.70;;;4.15;;
43150;SDS011;28755;51.478;5.702;2023-07-30T03:50:33;23.70;;;4.38;;
43150;SDS011;28755;51.478;5.702;2023-07-30T03:52:58;19.55;;;3.92;;
43150;SDS011;28755;51.478;5.702;2023-07-30T03:55:24;17.77;;;4.22;;
43150;SDS011;28755;51.478;5.702;2023-07-30T03:57:49;14.98;;;3.60;;
43150;SDS011;28755;51.478;5.702;2023-07-30T04:00:15;12.65;;;3.47;;
43150;SDS011;28755;51.478;5.702;2023-07-30T04:02:40;19.83;;;4.15;;
43150;SDS011;28755;51.478;5.702;2023-07-30T04:05:06;15.38;;;3.63;;
43150;SDS011;28755;51.478;5.702;2023-07-30T04:07:32;14.02;;;4.00;;
43150;SDS011;28755;51.478;5.702;2023-07-30T04:09:57;14.23;;;4.07;;
43150;SDS011;28755;51.478;5.702;2023-07-30T04:12:23;19.45;;;4.03;;
43150;SDS011;28755;51.478;5.702;2023-07-30T04:14:48;19.92;;;4.55;;
43150;SDS011;28755;51.478;5.702;2023-07-30T04:17:14;17.10;;;4.47;;
43150;SDS011;28755;51.478;5.702;2023-07-30T04:19:39;16.55;;;4.60;;
43150;SDS011;28755;51.478;5.702;2023-07-30T04:22:05;20.38;;;4.63;;
43150;SDS011;28755;51.478;5.702;2023-07-30T04:24:30;23.23;;;5.03;;
43150;SDS011;28755;51.478;5.702;2023-07-30T04:26:56;17.52;;;5.22;;
43150;SDS011;28755;51.478;5.702;2023-07-30T04:29:21;16.88;;;5.75;;
43150;SDS011;28755;51.478;5.702;2023-07-30T04:31:47;19.88;;;5.95;;
43150;SDS011;28755;51.478;5.702;2023-07-30T04:34:12;21.08;;;6.43;;
43150;SDS011;28755;51.478;5.702;2023-07-30T04:36:38;26.27;;;6.40;;
43150;SDS011;28755;51.478;5.702;2023-07-30T04:39:04;26.20;;;7.00;;
43150;SDS011;28755;51.478;5.702;2023-07-30T04:41:29;21.02;;;5.55;;
43150;SDS011;28755;51.478;5.702;2023-07-30T04:43:55;25.58;;;6.05;;
43150;SDS011;28755;51.478;5.702;2023-07-30T04:46:21;18.42;;;6.18;;
43150;SDS011;28755;51.478;5.702;2023-07-30T04:48:46;27.15;;;8.40;;
43150;SDS011;28755;51.478;5.702;2023-07-30T04:51:12;31.85;;;7.43;;
43150;SDS011;28755;51.478;5.702;2023-07-30T04:53:37;23.85;;;7.78;;
43150;SDS011;28755;51.478;5.702;2023-07-30T04:56:03;23.23;;;6.80;;
43150;SDS011;28755;51.478;5.702;2023-07-30T04:58:28;24.50;;;7.50;;
43150;SDS011;28755;51.478;5.702;2023-07-30T05:00:54;22.13;;;6.82;;
43150;SDS011;28755;51.478;5.702;2023-07-30T05:03:20;24.83;;;7.07;;
43150;SDS011;28755;51.478;5.702;2023-07-30T05:05:46;27.73;;;6.82;;
43150;SDS011;28755;51.478;5.702;2023-07-30T05:08:11;22.70;;;6.85;;
43150;SDS011;28755;51.478;5.702;2023-07-30T05:10:37;22.05;;;6.45;;
43150;SDS011;28755;51.478;5.702;2023-07-30T05:13:02;20.48;;;5.93;;
43150;SDS011;28755;51.478;5.702;2023-07-30T05:15:28;21.67;;;5.95;;
43150;SDS011;28755;51.478;5.702;2023-07-30T05:17:53;20.25;;;6.38;;
43150;SDS011;28755;51.478;5.702;2023-07-30T05:20:19;17.85;;;5.78;;
43150;SDS011;28755;51.478;5.702;2023-07-30T05:22:44;21.20;;;5.75;;
43150;SDS011;28755;51.478;5.702;2023-07-30T05:25:10;24.92;;;5.82;;
43150;SDS011;28755;51.478;5.702;2023-07-30T05:27:35;24.65;;;6.05;;
43150;SDS011;28755;51.478;5.702;2023-07-30T05:30:02;22.77;;;5.95;;
43150;SDS011;28755;51.478;5.702;2023-07-30T05:32:28;29.13;;;6.15;;
43150;SDS011;28755;51.478;5.702;2023-07-30T05:34:54;18.63;;;5.45;;
43150;SDS011;28755;51.478;5.702;2023-07-30T05:37:19;21.55;;;5.13;;
43150;SDS011;28755;51.478;5.702;2023-07-30T05:39:45;21.98;;;5.63;;
43150;SDS011;28755;51.478;5.702;2023-07-30T05:42:10;20.40;;;4.72;;
43150;SDS011;28755;51.478;5.702;2023-07-30T05:44:36;22.05;;;5.20;;
43150;SDS011;28755;51.478;5.702;2023-07-30T05:47:01;16.15;;;4.57;;
43150;SDS011;28755;51.478;5.702;2023-07-30T05:49:27;24.58;;;5.97;;
43150;SDS011;28755;51.478;5.702;2023-07-30T05:51:53;26.50;;;5.55;;
43150;SDS011;28755;51.478;5.702;2023-07-30T05:54:18;25.80;;;5.68;;
43150;SDS011;28755;51.478;5.702;2023-07-30T05:56:44;25.67;;;6.18;;
43150;SDS011;28755;51.478;5.702;2023-07-30T05:59:10;26.35;;;6.78;;
43150;SDS011;28755;51.478;5.702;2023-07-30T06:01:35;25.13;;;5.57;;
43150;SDS011;28755;51.478;5.702;2023-07-30T06:04:01;25.30;;;5.65;;
43150;SDS011;28755;51.478;5.702;2023-07-30T06:06:26;29.58;;;5.70;;
43150;SDS011;28755;51.478;5.702;2023-07-30T06:08:55;25.52;;;4.97;;
43150;SDS011;28755;51.478;5.702;2023-07-30T06:11:21;24.65;;;5.25;;
43150;SDS011;28755;51.478;5.702;2023-07-30T06:13:47;23.73;;;5.20;;
43150;SDS011;28755;51.478;5.702;2023-07-30T06:16:13;22.75;;;4.97;;
43150;SDS011;28755;51.478;5.702;2023-07-30T06:18:39;30.13;;;6.45;;
43150;SDS011;28755;51.478;5.702;2023-07-30T06:21:04;22.08;;;5.30;;
43150;SDS011;28755;51.478;5.702;2023-07-30T06:23:30;27.52;;;5.38;;
43150;SDS011;28755;51.478;5.702;2023-07-30T06:25:55;27.08;;;4.97;;
43150;SDS011;28755;51.478;5.702;2023-07-30T06:28:21;24.45;;;5.32;;
43150;SDS011;28755;51.478;5.702;2023-07-30T06:30:46;32.28;;;5.70;;
43150;SDS011;28755;51.478;5.702;2023-07-30T06:33:12;24.80;;;5.38;;
43150;SDS011;28755;51.478;5.702;2023-07-30T06:35:37;25.83;;;5.43;;
43150;SDS011;28755;51.478;5.702;2023-07-30T06:38:03;24.02;;;6.18;;
43150;SDS011;28755;51.478;5.702;2023-07-30T06:40:30;25.05;;;5.70;;
43150;SDS011;28755;51.478;5.702;2023-07-30T06:42:56;28.08;;;5.50;;
43150;SDS011;28755;51.478;5.702;2023-07-30T06:45:22;28.58;;;6.00;;
43150;SDS011;28755;51.478;5.702;2023-07-30T06:47:47;29.98;;;6.03;;
43150;SDS011;28755;51.478;5.702;2023-07-30T06:50:13;24.13;;;5.22;;
43150;SDS011;28755;51.478;5.702;2023-07-30T06:52:38;20.17;;;5.35;;
43150;SDS011;28755;51.478;5.702;2023-07-30T06:55:04;27.42;;;5.35;;
43150;SDS011;28755;51.478;5.702;2023-07-30T06:57:29;26.75;;;5.60;;
43150;SDS011;28755;51.478;5.702;2023-07-30T06:59:55;26.27;;;5.15;;
43150;SDS011;28755;51.478;5.702;2023-07-30T07:02:21;23.92;;;5.65;;
43150;SDS011;28755;51.478;5.702;2023-07-30T07:04:47;25.15;;;4.55;;
43150;SDS011;28755;51.478;5.702;2023-07-30T07:07:12;25.92;;;5.03;;
43150;SDS011;28755;51.478;5.702;2023-07-30T07:09:38;23.23;;;5.05;;
43150;SDS011;28755;51.478;5.702;2023-07-30T07:12:03;20.67;;;4.47;;
43150;SDS011;28755;51.478;5.702;2023-07-30T07:14:29;27.95;;;4.63;;
43150;SDS011;28755;51.478;5.702;2023-07-30T07:16:55;19.17;;;4.30;;
43150;SDS011;28755;51.478;5.702;2023-07-30T07:19:23;27.25;;;5.43;;
43150;SDS011;28755;51.478;5.702;2023-07-30T07:21:49;22.23;;;4.63;;
43150;SDS011;28755;51.478;5.702;2023-07-30T07:24:15;26.60;;;4.13;;
43150;SDS011;28755;51.478;5.702;2023-07-30T07:26:41;24.70;;;4.78;;
43150;SDS011;28755;51.478;5.702;2023-07-30T07:29:07;19.70;;;4.38;;
43150;SDS011;28755;51.478;5.702;2023-07-30T07:31:32;21.48;;;4.15;;
43150;SDS011;28755;51.478;5.702;2023-07-30T07:33:58;18.20;;;4.18;;
43150;SDS011;28755;51.478;5.702;2023-07-30T07:36:23;24.40;;;4.70;;
43150;SDS011;28755;51.478;5.702;2023-07-30T07:38:49;22.33;;;4.35;;
43150;SDS011;28755;51.478;5.702;2023-07-30T07:41:15;23.60;;;4.18;;
43150;SDS011;28755;51.478;5.702;2023-07-30T07:43:41;21.17;;;3.90;;
43150;SDS011;28755;51.478;5.702;2023-07-30T07:46:07;27.02;;;4.60;;
43150;SDS011;28755;51.478;5.702;2023-07-30T07:48:38;23.27;;;4.07;;
43150;SDS011;28755;51.478;5.702;2023-07-30T07:51:08;24.08;;;3.90;;
43150;SDS011;28755;51.478;5.702;2023-07-30T07:53:35;17.63;;;3.72;;
43150;SDS011;28755;51.478;5.702;2023-07-30T07:56:01;24.00;;;4.28;;
43150;SDS011;28755;51.478;5.702;2023-07-30T07:58:27;25.58;;;4.20;;
43150;SDS011;28755;51.478;5.702;2023-07-30T08:00:56;15.48;;;3.63;;
43150;SDS011;28755;51.478;5.702;2023-07-30T08:03:22;24.88;;;4.00;;
43150;SDS011;28755;51.478;5.702;2023-07-30T08:05:48;22.65;;;3.63;;
43150;SDS011;28755;51.478;5.702;2023-07-30T08:08:14;25.80;;;4.55;;
43150;SDS011;28755;51.478;5.702;2023-07-30T08:10:40;17.35;;;3.38;;
43150;SDS011;28755;51.478;5.702;2023-07-30T08:13:09;19.05;;;3.40;;
43150;SDS011;28755;51.478;5.702;2023-07-30T08:15:37;22.65;;;4.32;;
43150;SDS011;28755;51.478;5.702;2023-07-30T08:24:23;21.83;;;4.18;;
43150;SDS011;28755;51.478;5.702;2023-07-30T08:26:48;18.50;;;3.63;;
43150;SDS011;28755;51.478;5.702;2023-07-30T08:29:14;16.88;;;3.50;;
43150;SDS011;28755;51.478;5.702;2023-07-30T08:31:40;15.20;;;3.22;;
43150;SDS011;28755;51.478;5.702;2023-07-30T08:34:06;21.65;;;3.83;;
43150;SDS011;28755;51.478;5.702;2023-07-30T08:36:32;27.02;;;4.05;;
43150;SDS011;28755;51.478;5.702;2023-07-30T08:38:57;20.02;;;3.75;;
43150;SDS011;28755;51.478;5.702;2023-07-30T08:41:23;20.65;;;3.60;;
43150;SDS011;28755;51.478;5.702;2023-07-30T08:43:49;13.65;;;3.10;;
43150;SDS011;28755;51.478;5.702;2023-07-30T08:46:16;26.08;;;3.80;;
43150;SDS011;28755;51.478;5.702;2023-07-30T08:48:42;19.85;;;3.05;;
43150;SDS011;28755;51.478;5.702;2023-07-30T08:51:08;16.25;;;3.05;;
43150;SDS011;28755;51.478;5.702;2023-07-30T08:53:34;17.23;;;3.47;;
43150;SDS011;28755;51.478;5.702;2023-07-30T08:56:00;20.50;;;4.28;;
43150;SDS011;28755;51.478;5.702;2023-07-30T08:58:27;22.33;;;3.45;;
43150;SDS011;28755;51.478;5.702;2023-07-30T09:00:56;17.67;;;3.38;;
43150;SDS011;28755;51.478;5.702;2023-07-30T09:03:23;18.55;;;3.45;;
43150;SDS011;28755;51.478;5.702;2023-07-30T09:05:51;17.40;;;2.97;;
43150;SDS011;28755;51.478;5.702;2023-07-30T09:08:17;16.50;;;3.58;;
43150;SDS011;28755;51.478;5.702;2023-07-30T09:10:43;13.40;;;2.80;;
43150;SDS011;28755;51.478;5.702;2023-07-30T09:13:08;18.95;;;3.55;;
43150;SDS011;28755;51.478;5.702;2023-07-30T09:15:35;19.65;;;3.95;;
43150;SDS011;28755;51.478;5.702;2023-07-30T09:18:02;18.70;;;3.20;;
43150;SDS011;28755;51.478;5.702;2023-07-30T09:20:28;13.55;;;2.95;;
43150;SDS011;28755;51.478;5.702;2023-07-30T09:23:05;18.23;;;2.90;;
43150;SDS011;28755;51.478;5.702;2023-07-30T09:25:32;20.33;;;3.25;;
43150;SDS011;28755;51.478;5.702;2023-07-30T09:27:58;17.05;;;3.88;;
43150;SDS011;28755;51.478;5.702;2023-07-30T09:30:24;15.40;;;3.30;;
43150;SDS011;28755;51.478;5.702;2023-07-30T09:32:51;17.75;;;3.33;;
43150;SDS011;28755;51.478;5.702;2023-07-30T09:35:18;12.90;;;3.35;;
43150;SDS011;28755;51.478;5.702;2023-07-30T09:37:44;14.55;;;3.10;;
43150;SDS011;28755;51.478;5.702;2023-07-30T09:40:10;15.15;;;2.90;;
43150;SDS011;28755;51.478;5.702;2023-07-30T09:42:38;16.80;;;2.70;;
43150;SDS011;28755;51.478;5.702;2023-07-30T09:45:06;15.82;;;3.08;;
43150;SDS011;28755;51.478;5.702;2023-07-30T09:47:33;15.15;;;3.20;;
43150;SDS011;28755;51.478;5.702;2023-07-30T09:50:01;9.73;;;2.38;;
43150;SDS011;28755;51.478;5.702;2023-07-30T09:52:27;16.35;;;3.03;;
43150;SDS011;28755;51.478;5.702;2023-07-30T09:54:54;10.93;;;2.22;;
43150;SDS011;28755;51.478;5.702;2023-07-30T09:57:22;12.60;;;2.30;;
43150;SDS011;28755;51.478;5.702;2023-07-30T09:59:48;10.77;;;2.33;;
43150;SDS011;28755;51.478;5.702;2023-07-30T10:02:14;18.10;;;3.08;;
43150;SDS011;28755;51.478;5.702;2023-07-30T10:04:43;10.77;;;2.40;;
43150;SDS011;28755;51.478;5.702;2023-07-30T10:07:14;10.13;;;2.10;;
43150;SDS011;28755;51.478;5.702;2023-07-30T10:09:47;14.93;;;2.55;;
43150;SDS011;28755;51.478;5.702;2023-07-30T10:12:16;10.70;;;2.30;;
43150;SDS011;28755;51.478;5.702;2023-07-30T10:14:43;12.15;;;2.97;;
43150;SDS011;28755;51.478;5.702;2023-07-30T10:17:11;11.40;;;2.20;;
43150;SDS011;28755;51.478;5.702;2023-07-30T10:19:37;15.32;;;3.22;;
43150;SDS011;28755;51.478;5.702;2023-07-30T10:24:38;11.52;;;2.80;;
43150;SDS011;28755;51.478;5.702;2023-07-30T10:27:07;13.25;;;2.65;;
43150;SDS011;28755;51.478;5.702;2023-07-30T10:29:35;11.32;;;2.65;;
43150;SDS011;28755;51.478;5.702;2023-07-30T10:32:01;13.60;;;2.20;;
43150;SDS011;28755;51.478;5.702;2023-07-30T10:34:49;14.98;;;2.85;;
43150;SDS011;28755;51.478;5.702;2023-07-30T10:37:22;10.15;;;2.22;;
43150;SDS011;28755;51.478;5.702;2023-07-30T10:39:50;10.60;;;2.35;;
43150;SDS011;28755;51.478;5.702;2023-07-30T10:42:16;11.73;;;2.33;;
43150;SDS011;28755;51.478;5.702;2023-07-30T10:44:43;13.18;;;2.28;;
43150;SDS011;28755;51.478;5.702;2023-07-30T10:47:09;9.15;;;2.03;;
43150;SDS011;28755;51.478;5.702;2023-07-30T10:49:36;13.40;;;2.40;;
43150;SDS011;28755;51.478;5.702;2023-07-30T10:52:03;6.82;;;1.90;;
43150;SDS011;28755;51.478;5.702;2023-07-30T10:54:35;8.43;;;2.03;;
43150;SDS011;28755;51.478;5.702;2023-07-30T10:57:05;6.13;;;1.77;;
43150;SDS011;28755;51.478;5.702;2023-07-30T10:59:34;7.80;;;1.75;;
43150;SDS011;28755;51.478;5.702;2023-07-30T11:02:01;11.60;;;1.90;;
43150;SDS011;28755;51.478;5.702;2023-07-30T11:04:26;10.27;;;2.20;;
43150;SDS011;28755;51.478;5.702;2023-07-30T11:06:52;9.15;;;1.80;;
43150;SDS011;28755;51.478;5.702;2023-07-30T11:09:21;7.72;;;1.88;;
43150;SDS011;28755;51.478;5.702;2023-07-30T11:11:48;6.45;;;1.80;;
43150;SDS011;28755;51.478;5.702;2023-07-30T11:14:21;8.65;;;1.70;;
43150;SDS011;28755;51.478;5.702;2023-07-30T11:16:51;6.07;;;1.52;;
43150;SDS011;28755;51.478;5.702;2023-07-30T11:19:18;8.00;;;1.42;;
43150;SDS011;28755;51.478;5.702;2023-07-30T11:21:44;7.97;;;1.40;;
43150;SDS011;28755;51.478;5.702;2023-07-30T11:24:11;9.15;;;2.05;;
43150;SDS011;28755;51.478;5.702;2023-07-30T11:26:36;7.97;;;1.85;;
43150;SDS011;28755;51.478;5.702;2023-07-30T11:29:13;6.50;;;1.50;;
43150;SDS011;28755;51.478;5.702;2023-07-30T11:31:43;8.60;;;1.70;;
43150;SDS011;28755;51.478;5.702;2023-07-30T11:34:09;7.68;;;1.75;;
43150;SDS011;28755;51.478;5.702;2023-07-30T11:36:35;9.75;;;1.80;;
43150;SDS011;28755;51.478;5.702;2023-07-30T11:39:01;7.43;;;1.60;;
43150;SDS011;28755;51.478;5.702;2023-07-30T11:41:27;7.50;;;1.52;;
43150;SDS011;28755;51.478;5.702;2023-07-30T11:43:54;9.82;;;2.22;;
43150;SDS011;28755;51.478;5.702;2023-07-30T11:46:20;7.85;;;1.42;;
43150;SDS011;28755;51.478;5.702;2023-07-30T11:48:48;8.43;;;1.55;;
43150;SDS011;28755;51.478;5.702;2023-07-30T11:51:18;9.05;;;2.25;;
43150;SDS011;28755;51.478;5.702;2023-07-30T11:56:17;10.18;;;1.33;;
43150;SDS011;28755;51.478;5.702;2023-07-30T11:58:55;7.25;;;1.60;;
43150;SDS011;28755;51.478;5.702;2023-07-30T12:01:25;6.93;;;1.67;;
43150;SDS011;28755;51.478;5.702;2023-07-30T12:03:54;5.68;;;1.65;;
43150;SDS011;28755;51.478;5.702;2023-07-30T12:06:23;7.93;;;1.70;;
43150;SDS011;28755;51.478;5.702;2023-07-30T12:08:49;8.35;;;1.90;;
43150;SDS011;28755;51.478;5.702;2023-07-30T12:11:17;7.75;;;1.90;;
43150;SDS011;28755;51.478;5.702;2023-07-30T12:13:45;8.27;;;1.70;;
43150;SDS011;28755;51.478;5.702;2023-07-30T12:16:11;7.43;;;1.80;;
43150;SDS011;28755;51.478;5.702;2023-07-30T12:18:38;6.25;;;1.70;;
43150;SDS011;28755;51.478;5.702;2023-07-30T12:21:05;8.55;;;1.30;;
43150;SDS011;28755;51.478;5.702;2023-07-30T12:23:32;13.63;;;1.92;;
43150;SDS011;28755;51.478;5.702;2023-07-30T12:26:02;9.35;;;1.75;;
43150;SDS011;28755;51.478;5.702;2023-07-30T12:28:29;8.10;;;1.73;;
43150;SDS011;28755;51.478;5.702;2023-07-30T12:30:56;5.22;;;1.25;;
43150;SDS011;28755;51.478;5.702;2023-07-30T12:33:22;9.02;;;1.55;;
43150;SDS011;28755;51.478;5.702;2023-07-30T12:35:47;6.68;;;1.70;;
43150;SDS011;28755;51.478;5.702;2023-07-30T12:38:15;5.88;;;1.60;;
43150;SDS011;28755;51.478;5.702;2023-07-30T12:40:40;7.32;;;1.40;;
43150;SDS011;28755;51.478;5.702;2023-07-30T12:43:06;5.70;;;1.35;;
43150;SDS011;28755;51.478;5.702;2023-07-30T12:45:31;6.63;;;1.45;;
43150;SDS011;28755;51.478;5.702;2023-07-30T12:47:57;5.28;;;1.20;;
43150;SDS011;28755;51.478;5.702;2023-07-30T12:50:23;6.95;;;1.30;;
43150;SDS011;28755;51.478;5.702;2023-07-30T12:52:48;7.20;;;1.50;;
43150;SDS011;28755;51.478;5.702;2023-07-30T12:55:14;7.35;;;1.52;;
43150;SDS011;28755;51.478;5.702;2023-07-30T12:57:39;7.07;;;1.55;;
43150;SDS011;28755;51.478;5.702;2023-07-30T13:00:05;10.27;;;1.83;;
43150;SDS011;28755;51.478;5.702;2023-07-30T13:02:31;6.20;;;1.60;;
43150;SDS011;28755;51.478;5.702;2023-07-30T13:05:00;9.85;;;1.80;;
43150;SDS011;28755;51.478;5.702;2023-07-30T13:07:26;6.25;;;1.52;;
43150;SDS011;28755;51.478;5.702;2023-07-30T13:10:04;7.43;;;1.88;;
43150;SDS011;28755;51.478;5.702;2023-07-30T13:12:30;14.20;;;1.83;;
43150;SDS011;28755;51.478;5.702;2023-07-30T13:14:56;8.27;;;1.60;;
43150;SDS011;28755;51.478;5.702;2023-07-30T13:17:22;10.60;;;1.70;;
43150;SDS011;28755;51.478;5.702;2023-07-30T13:19:47;6.45;;;1.42;;
43150;SDS011;28755;51.478;5.702;2023-07-30T13:22:13;7.07;;;1.33;;
43150;SDS011;28755;51.478;5.702;2023-07-30T13:24:47;8.15;;;1.60;;
43150;SDS011;28755;51.478;5.702;2023-07-30T13:27:13;4.88;;;1.17;;
43150;SDS011;28755;51.478;5.702;2023-07-30T13:29:38;8.20;;;1.45;;
43150;SDS011;28755;51.478;5.702;2023-07-30T13:32:04;9.18;;;1.33;;
43150;SDS011;28755;51.478;5.702;2023-07-30T13:34:31;7.22;;;1.40;;
43150;SDS011;28755;51.478;5.702;2023-07-30T13:36:57;3.65;;;1.30;;
43150;SDS011;28755;51.478;5.702;2023-07-30T13:39:22;5.60;;;1.10;;
43150;SDS011;28755;51.478;5.702;2023-07-30T13:41:48;6.45;;;1.38;;
43150;SDS011;28755;51.478;5.702;2023-07-30T13:44:14;8.32;;;1.40;;
43150;SDS011;28755;51.478;5.702;2023-07-30T13:46:39;6.18;;;1.20;;
43150;SDS011;28755;51.478;5.702;2023-07-30T13:49:05;8.43;;;1.50;;
43150;SDS011;28755;51.478;5.702;2023-07-30T13:51:31;8.45;;;1.30;;
43150;SDS011;28755;51.478;5.702;2023-07-30T13:54:00;4.05;;;1.10;;
43150;SDS011;28755;51.478;5.702;2023-07-30T13:56:27;5.68;;;1.15;;
43150;SDS011;28755;51.478;5.702;2023-07-30T13:58:54;2.95;;;1.05;;
43150;SDS011;28755;51.478;5.702;2023-07-30T14:01:19;4.65;;;1.05;;
43150;SDS011;28755;51.478;5.702;2023-07-30T14:03:45;5.65;;;1.50;;
43150;SDS011;28755;51.478;5.702;2023-07-30T14:06:11;9.90;;;1.50;;
43150;SDS011;28755;51.478;5.702;2023-07-30T14:08:37;5.10;;;0.95;;
43150;SDS011;28755;51.478;5.702;2023-07-30T14:11:02;6.00;;;1.33;;
43150;SDS011;28755;51.478;5.702;2023-07-30T14:13:28;5.22;;;1.77;;
43150;SDS011;28755;51.478;5.702;2023-07-30T14:15:54;5.75;;;1.30;;
43150;SDS011;28755;51.478;5.702;2023-07-30T14:18:19;8.55;;;1.20;;
43150;SDS011;28755;51.478;5.702;2023-07-30T14:20:47;8.95;;;1.70;;
43150;SDS011;28755;51.478;5.702;2023-07-30T14:23:12;6.03;;;1.40;;
43150;SDS011;28755;51.478;5.702;2023-07-30T14:25:38;5.45;;;1.20;;
43150;SDS011;28755;51.478;5.702;2023-07-30T14:28:04;12.30;;;1.70;;
43150;SDS011;28755;51.478;5.702;2023-07-30T14:30:30;6.53;;;1.33;;
43150;SDS011;28755;51.478;5.702;2023-07-30T14:32:55;10.05;;;1.45;;
43150;SDS011;28755;51.478;5.702;2023-07-30T14:35:21;4.20;;;1.50;;
43150;SDS011;28755;51.478;5.702;2023-07-30T14:37:47;6.82;;;1.35;;
43150;SDS011;28755;51.478;5.702;2023-07-30T14:40:13;5.85;;;1.30;;
43150;SDS011;28755;51.478;5.702;2023-07-30T14:42:39;4.15;;;1.13;;
43150;SDS011;28755;51.478;5.702;2023-07-30T14:45:05;6.15;;;1.42;;